Main page
METAR-TAF:

METAR-TAF

Airports :

Blackpool Airport

Blackpool, England

latitude: 53-46N, longitude: 003-02W, elevation: 10 m

Current weather observation

The report was made 18 minutes ago, at 05:50 UTC
Wind 6 kt from the North/Northeast
Temperature 10°C
Humidity 76%
Pressure 996 hPa
Visibility 10 km or more
Few clouds at a height of 1200 ft
Scattered clouds at a height of 2500 ft
showers in vicinity

METAR: EGNH 050550Z 02006KT 9999 VCSH FEW012 SCT025 10/06 Q0996

Time: 07:08 (06:08 UTC)

Forecast

The report was made 16 hours and 7 minutes ago, at 14:01 UTC
Forecast valid from 04 at 15 UTC to 04 at 20 UTC
Wind 13 kt from the West/Northwest
Visibility 10 km or more
Scattered clouds at a height of 2500 ft
Probability 30% :
Temporary
from 04 at 15 UTC to 04 at 20 UTC
Visibility: 7000 m
Broken clouds at a height of 1200 ft
rain showers

TAF: EGNH 041401Z 0415/0420 30013KT 9999 SCT025 PROB30 TEMPO 0415/0420 7000 SHRA BKN012

Weather observations and forecasts of more than 4000 airports (METAR and TAF reports).

The available stations are represented by yellow and red dots on the map.

Hover mouse over dot to see the name of the station.

Then click to see weather observations and forecasts.

To change the map : click on the green buttons with a black cross to zoom in, on the green button with a dash to zoom out, or on the green arrows for adjacent maps.


METAR-TAF: